Time;durP1;ratioP1;P1;durP2;ratioP2;P2;SDS_P1;SDS_P2;PMS_P1;PMS_P2;Temp;Humidity;BMP_temperature;BMP_pressure;BME280_temperature;BME280_humidity;BME280_pressure;Samples;Min_cycle;Max_cycle;Signal;HPM_P1;HPM_P2
2021/09/01 00:00:58;;;;;;;15.50;13.90;;;13.00;99.90;;;;;;5014267;28;20672;-61
2021/09/01 00:03:23;;;;;;;14.20;12.40;;;12.90;99.90;;;;;;5014342;28;20163;-61
2021/09/01 00:05:49;;;;;;;14.60;12.23;;;12.90;99.90;;;;;;5014277;28;20649;-61
2021/09/01 00:08:15;;;;;;;14.53;13.03;;;12.90;99.90;;;;;;5013997;28;20198;-61
2021/09/01 00:10:40;;;;;;;15.90;12.53;;;12.80;99.90;;;;;;5014074;28;20199;-61
2021/09/01 00:13:07;;;;;;;13.67;11.53;;;12.80;99.90;;;;;;5014084;28;20664;-61
2021/09/01 00:15:33;;;;;;;14.63;11.73;;;12.90;99.90;;;;;;5014125;28;20175;-61
2021/09/01 00:17:59;;;;;;;13.77;12.40;;;12.90;99.90;;;;;;5013860;28;20954;-61
2021/09/01 00:20:26;;;;;;;15.13;13.03;;;13.00;99.90;;;;;;5013710;28;20458;-61
2021/09/01 00:22:53;;;;;;;15.20;13.73;;;12.90;99.90;;;;;;5013946;28;20464;-61
2021/09/01 00:25:19;;;;;;;14.50;12.00;;;12.80;99.90;;;;;;5013839;28;20914;-61
2021/09/01 00:27:45;;;;;;;13.80;12.33;;;12.70;99.90;;;;;;5013744;28;20455;-61
2021/09/01 00:30:11;;;;;;;14.30;12.80;;;12.70;99.90;;;;;;5013569;28;20422;-61
2021/09/01 00:32:36;;;;;;;15.40;13.83;;;12.70;99.90;;;;;;5013741;28;20535;-61
2021/09/01 00:35:02;;;;;;;15.43;12.80;;;12.70;99.90;;;;;;5013689;28;20425;-61
2021/09/01 00:37:28;;;;;;;16.07;14.57;;;12.80;99.90;;;;;;5013608;28;20221;-61
2021/09/01 00:39:53;;;;;;;17.10;12.30;;;12.90;99.90;;;;;;5012633;28;20228;-60
2021/09/01 00:42:19;;;;;;;15.03;13.63;;;12.80;99.90;;;;;;5013298;28;20635;-61
2021/09/01 00:44:46;;;;;;;14.10;12.47;;;12.70;99.90;;;;;;5013428;28;20533;-61
2021/09/01 00:47:17;;;;;;;14.87;13.37;;;12.60;99.90;;;;;;5013392;28;20274;-61
2021/09/01 00:49:43;;;;;;;15.97;14.23;;;12.60;99.90;;;;;;5013288;28;20414;-61
2021/09/01 00:52:09;;;;;;;14.10;12.70;;;12.70;99.90;;;;;;5013223;28;20422;-61
2021/09/01 00:54:37;;;;;;;13.10;11.80;;;12.70;99.90;;;;;;5013198;28;20510;-61
2021/09/01 00:57:06;;;;;;;13.90;12.47;;;12.70;99.90;;;;;;5013207;28;20190;-61
2021/09/01 00:59:33;;;;;;;15.33;13.10;;;12.70;99.90;;;;;;5012794;28;20889;-61
2021/09/01 01:02:00;;;;;;;14.53;13.23;;;12.70;99.90;;;;;;5013154;28;20414;-61
2021/09/01 01:04:34;;;;;;;15.40;13.97;;;12.60;99.90;;;;;;5013148;28;20449;-61
2021/09/01 01:07:05;;;;;;;13.30;11.90;;;12.50;99.90;;;;;;5012945;28;20422;-61
2021/09/01 01:09:32;;;;;;;16.57;14.90;;;12.50;99.90;;;;;;5012823;28;20464;-61
2021/09/01 01:12:03;;;;;;;15.77;14.17;;;12.50;99.90;;;;;;5012982;28;20436;-61
2021/09/01 01:14:30;;;;;;;16.13;13.90;;;12.40;99.90;;;;;;5013068;28;20993;-61
2021/09/01 01:16:55;;;;;;;17.80;14.33;;;12.40;99.90;;;;;;5012748;28;20430;-61
2021/09/01 01:19:21;;;;;;;15.23;13.73;;;12.40;99.90;;;;;;5012406;28;20504;-61
2021/09/01 01:21:48;;;;;;;15.80;14.10;;;12.40;99.90;;;;;;5012876;28;20214;-61
2021/09/01 01:24:14;;;;;;;17.80;12.13;;;12.50;99.90;;;;;;5012744;28;20444;-61
2021/09/01 01:26:39;;;;;;;14.70;13.30;;;12.50;99.90;;;;;;5012778;28;20507;-61
2021/09/01 01:29:09;;;;;;;14.83;13.20;;;12.60;99.90;;;;;;5012423;28;20437;-61
2021/09/01 01:31:37;;;;;;;16.87;13.53;;;12.60;99.90;;;;;;5011380;28;20645;-60
2021/09/01 01:34:03;;;;;;;15.67;13.63;;;12.50;99.90;;;;;;5012582;28;20429;-61
2021/09/01 01:36:28;;;;;;;14.93;13.33;;;12.50;99.90;;;;;;5012506;28;20430;-61
2021/09/01 01:38:54;;;;;;;16.07;14.47;;;12.60;99.90;;;;;;5012134;28;20195;-61
2021/09/01 01:41:20;;;;;;;18.03;13.80;;;12.50;99.90;;;;;;5012469;28;20175;-61
2021/09/01 01:43:47;;;;;;;14.57;13.03;;;12.50;99.90;;;;;;5012506;28;20436;-60
2021/09/01 01:46:14;;;;;;;15.83;14.30;;;12.50;99.90;;;;;;5012440;28;20575;-61
2021/09/01 01:48:39;;;;;;;18.67;15.20;;;12.40;99.90;;;;;;5011894;28;20445;-60
2021/09/01 01:51:05;;;;;;;16.83;15.10;;;12.40;99.90;;;;;;5012257;28;20428;-61
2021/09/01 01:53:31;;;;;;;18.40;15.77;;;12.30;99.90;;;;;;5012060;28;20221;-61
2021/09/01 01:55:56;;;;;;;19.73;15.00;;;12.40;99.90;;;;;;5011934;28;20534;-61
2021/09/01 01:58:22;;;;;;;15.10;13.30;;;12.40;99.90;;;;;;5012012;28;20684;-60
2021/09/01 02:00:49;;;;;;;15.40;13.80;;;12.40;99.90;;;;;;5012032;28;20473;-61
2021/09/01 02:03:15;;;;;;;17.50;14.87;;;12.30;99.90;;;;;;5012131;28;20249;-61
2021/09/01 02:05:40;;;;;;;16.20;14.57;;;12.20;99.90;;;;;;5012261;28;20465;-61
2021/09/01 02:08:06;;;;;;;17.77;15.97;;;12.30;99.90;;;;;;5010726;28;20743;-61
2021/09/01 02:10:32;;;;;;;17.80;14.27;;;12.30;99.90;;;;;;5011881;28;20644;-61
2021/09/01 02:12:57;;;;;;;15.50;13.80;;;12.30;99.90;;;;;;5012065;28;20177;-60
2021/09/01 02:15:23;;;;;;;17.87;15.37;;;12.30;99.90;;;;;;5011965;28;20266;-61
2021/09/01 02:17:48;;;;;;;16.53;14.73;;;12.20;99.90;;;;;;5011717;28;20260;-61
2021/09/01 02:20:15;;;;;;;16.30;14.60;;;12.20;99.90;;;;;;5011543;28;20281;-60
2021/09/01 02:22:41;;;;;;;16.00;14.40;;;12.20;99.90;;;;;;5011876;28;20167;-60
2021/09/01 02:25:08;;;;;;;16.60;14.50;;;12.20;99.90;;;;;;5011950;28;20421;-61
2021/09/01 02:27:34;;;;;;;21.60;15.60;;;12.20;99.90;;;;;;5011839;28;20438;-61
2021/09/01 02:30:00;;;;;;;16.70;15.00;;;12.20;99.90;;;;;;5011481;28;20456;-61
2021/09/01 02:32:26;;;;;;;17.17;15.43;;;12.10;99.90;;;;;;5011874;28;20230;-61
2021/09/01 02:34:51;;;;;;;16.37;14.63;;;12.10;99.90;;;;;;5011809;28;20848;-59
2021/09/01 02:37:17;;;;;;;18.23;16.23;;;12.20;99.90;;;;;;5011715;28;20557;-61
2021/09/01 02:39:42;;;;;;;17.97;14.80;;;12.20;99.90;;;;;;5011102;28;20197;-61
2021/09/01 02:42:08;;;;;;;17.53;13.80;;;12.20;99.90;;;;;;5011769;28;20261;-61
2021/09/01 02:44:35;;;;;;;17.13;15.40;;;12.10;99.90;;;;;;5011718;28;20264;-61
2021/09/01 02:47:01;;;;;;;17.17;14.70;;;12.00;99.90;;;;;;5011850;28;20563;-61
2021/09/01 02:49:26;;;;;;;17.53;15.40;;;12.00;99.90;;;;;;5011360;28;20504;-61
2021/09/01 02:51:52;;;;;;;18.77;15.87;;;12.10;99.90;;;;;;5011581;28;20382;-61
2021/09/01 02:54:17;;;;;;;16.83;15.00;;;12.00;99.90;;;;;;5011569;28;20167;-61
2021/09/01 02:56:43;;;;;;;19.80;15.13;;;12.10;99.90;;;;;;5011480;28;20320;-60
2021/09/01 02:59:09;;;;;;;17.97;13.93;;;12.10;99.90;;;;;;5011114;28;20252;-61
2021/09/01 03:01:34;;;;;;;16.60;14.50;;;12.10;99.90;;;;;;5011567;28;20167;-61
2021/09/01 03:04:00;;;;;;;18.07;15.17;;;12.10;99.90;;;;;;5011540;28;20178;-61
2021/09/01 03:06:25;;;;;;;18.37;16.23;;;12.00;99.90;;;;;;5013814;28;20687;-60
2021/09/01 03:08:51;;;;;;;16.87;15.30;;;12.00;99.90;;;;;;5014678;28;20195;-61
2021/09/01 03:11:16;;;;;;;17.33;15.57;;;12.00;99.90;;;;;;5015051;28;20182;-60
2021/09/01 03:13:43;;;;;;;16.27;14.50;;;12.10;99.90;;;;;;5015053;28;20638;-61
2021/09/01 03:16:08;;;;;;;18.63;15.53;;;12.00;99.90;;;;;;5015024;28;20210;-61
2021/09/01 03:18:34;;;;;;;18.77;15.70;;;11.90;99.90;;;;;;5014638;28;20449;-61
2021/09/01 03:20:59;;;;;;;16.40;14.63;;;11.80;99.90;;;;;;5014718;28;20687;-61
2021/09/01 03:23:25;;;;;;;18.40;15.17;;;11.90;99.90;;;;;;5014856;28;20203;-61
2021/09/01 03:25:50;;;;;;;18.13;15.67;;;12.00;99.90;;;;;;5014809;28;20178;-61
2021/09/01 03:28:16;;;;;;;18.47;16.57;;;11.90;99.90;;;;;;5014582;28;20191;-61
2021/09/01 03:30:41;;;;;;;18.43;16.27;;;11.90;99.90;;;;;;5014732;28;20696;-61
2021/09/01 03:33:07;;;;;;;16.10;14.23;;;11.90;99.90;;;;;;5014689;28;20179;-61
2021/09/01 03:35:32;;;;;;;20.03;15.00;;;11.90;99.90;;;;;;5013278;28;20187;-60
2021/09/01 03:37:58;;;;;;;16.90;15.10;;;11.90;99.90;;;;;;5014520;28;20226;-61
2021/09/01 03:40:23;;;;;;;16.60;14.33;;;11.90;99.90;;;;;;5013673;28;20198;-60
2021/09/01 03:42:49;;;;;;;15.80;12.43;;;11.90;99.90;;;;;;5014448;28;20163;-60
2021/09/01 03:45:15;;;;;;;23.00;15.23;;;11.80;99.90;;;;;;5014403;28;20373;-61
2021/09/01 03:47:41;;;;;;;16.27;13.73;;;11.70;99.90;;;;;;5014394;28;20186;-61
2021/09/01 03:50:10;;;;;;;16.47;14.63;;;11.60;99.90;;;;;;5013999;28;20422;-61
2021/09/01 03:52:36;;;;;;;14.70;13.30;;;11.60;99.90;;;;;;5014336;28;20441;-60
2021/09/01 03:55:02;;;;;;;21.53;14.30;;;11.70;99.90;;;;;;5014286;28;20422;-60
2021/09/01 03:57:28;;;;;;;16.13;13.90;;;11.70;99.90;;;;;;5014151;28;20194;-61
2021/09/01 03:59:53;;;;;;;17.63;14.70;;;11.70;99.90;;;;;;5013738;28;20640;-61
2021/09/01 04:02:19;;;;;;;16.93;15.13;;;11.60;99.90;;;;;;5014167;28;20168;-61
2021/09/01 04:04:45;;;;;;;17.13;15.27;;;11.60;99.90;;;;;;5013991;28;20227;-60
2021/09/01 04:07:10;;;;;;;17.70;16.00;;;11.50;99.90;;;;;;5013965;28;20294;-61
2021/09/01 04:09:36;;;;;;;16.87;14.90;;;11.50;99.90;;;;;;5013673;28;20167;-61
2021/09/01 04:12:02;;;;;;;19.33;15.67;;;11.50;99.90;;;;;;5013997;28;20244;-61
2021/09/01 04:14:27;;;;;;;18.03;15.20;;;11.40;99.90;;;;;;5013934;28;20245;-60
2021/09/01 04:16:53;;;;;;;16.13;14.50;;;11.50;99.90;;;;;;5013106;28;20182;-60
2021/09/01 04:19:18;;;;;;;16.30;14.17;;;11.60;99.90;;;;;;5013911;28;20191;-61
2021/09/01 04:21:44;;;;;;;15.93;14.27;;;11.60;99.90;;;;;;5013766;28;20171;-61
2021/09/01 04:24:09;;;;;;;15.00;13.47;;;11.60;99.90;;;;;;5013750;28;20179;-60
2021/09/01 04:26:35;;;;;;;16.10;14.40;;;11.50;99.90;;;;;;5013695;28;20265;-61
2021/09/01 04:29:00;;;;;;;15.17;13.57;;;11.50;99.90;;;;;;5013228;28;20199;-61
2021/09/01 04:31:26;;;;;;;16.10;14.40;;;11.50;99.90;;;;;;5013602;28;20167;-61
2021/09/01 04:33:51;;;;;;;23.07;15.07;;;11.50;99.90;;;;;;5013487;28;20203;-60
2021/09/01 04:36:18;;;;;;;19.53;15.57;;;11.60;99.90;;;;;;5013668;28;20643;-61
2021/09/01 04:38:44;;;;;;;19.17;15.20;;;11.50;99.90;;;;;;5013138;28;20182;-60
2021/09/01 04:41:09;;;;;;;15.10;13.50;;;11.40;99.90;;;;;;5013326;28;20548;-61
2021/09/01 04:43:35;;;;;;;16.73;15.10;;;11.30;99.90;;;;;;5013372;28;20621;-60
2021/09/01 04:46:00;;;;;;;16.03;14.43;;;11.30;99.90;;;;;;5013337;28;20175;-60
2021/09/01 04:48:26;;;;;;;15.83;13.87;;;11.30;99.90;;;;;;5012847;28;20344;-60
2021/09/01 04:50:53;;;;;;;17.53;15.67;;;11.30;99.90;;;;;;5013264;28;20544;-60
2021/09/01 04:53:19;;;;;;;18.03;16.13;;;11.40;99.90;;;;;;5013227;28;20171;-61
2021/09/01 04:55:45;;;;;;;15.23;12.97;;;11.50;99.90;;;;;;5013252;28;20418;-61
2021/09/01 04:58:10;;;;;;;18.80;14.77;;;11.40;99.90;;;;;;5013036;28;20794;-61
2021/09/01 05:00:36;;;;;;;19.23;14.80;;;11.30;99.90;;;;;;5012861;28;20194;-60
2021/09/01 05:03:02;;;;;;;16.73;13.00;;;11.40;99.90;;;;;;5012934;28;20224;-60
2021/09/01 05:05:27;;;;;;;13.97;12.50;;;11.50;99.90;;;;;;5012975;28;20218;-60
2021/09/01 05:07:53;;;;;;;18.70;16.20;;;11.50;99.90;;;;;;5012864;28;20190;-61
2021/09/01 05:10:19;;;;;;;15.67;12.93;;;11.60;99.90;;;;;;5012910;28;20276;-60
2021/09/01 05:12:49;;;;;;;19.10;14.27;;;11.70;99.90;;;;;;5013017;28;20178;-60
2021/09/01 05:15:15;;;;;;;21.50;16.77;;;11.80;99.90;;;;;;5012934;28;20187;-60
2021/09/01 05:17:41;;;;;;;15.17;13.57;;;11.90;99.90;;;;;;5012602;28;20829;-61
2021/09/01 05:20:07;;;;;;;14.80;13.13;;;11.90;99.90;;;;;;5012349;28;20453;-61
2021/09/01 05:22:35;;;;;;;16.93;13.87;;;12.00;99.90;;;;;;5012618;28;20258;-61
2021/09/01 05:25:10;;;;;;;13.90;12.60;;;11.90;99.90;;;;;;5012680;28;20414;-61
2021/09/01 05:27:38;;;;;;;16.17;14.27;;;11.90;99.90;;;;;;5012608;28;20608;-61
2021/09/01 05:30:10;;;;;;;14.00;12.17;;;12.00;99.90;;;;;;5011435;28;20425;-61
2021/09/01 05:32:39;;;;;;;16.33;12.17;;;12.00;99.90;;;;;;5012561;28;20422;-61
2021/09/01 05:35:07;;;;;;;18.00;13.40;;;12.20;99.90;;;;;;5012544;28;20839;-61
2021/09/01 05:37:33;;;;;;;15.03;13.07;;;12.20;99.90;;;;;;5012696;28;20468;-61
2021/09/01 05:40:01;;;;;;;14.87;13.03;;;12.30;99.90;;;;;;5012062;28;20500;-60
2021/09/01 05:42:29;;;;;;;14.20;12.80;;;12.50;99.90;;;;;;5012432;28;20418;-60
2021/09/01 05:44:56;;;;;;;17.50;13.60;;;12.60;99.90;;;;;;5012358;28;20419;-61
2021/09/01 05:47:23;;;;;;;13.23;11.83;;;12.70;99.90;;;;;;5012635;28;20802;-61
2021/09/01 05:49:50;;;;;;;14.73;12.57;;;12.80;99.90;;;;;;5012224;28;20444;-61
2021/09/01 05:52:17;;;;;;;18.90;14.10;;;12.80;99.90;;;;;;5012303;28;20472;-61
2021/09/01 05:54:46;;;;;;;17.27;15.50;;;12.90;99.90;;;;;;5012313;28;20851;-61
2021/09/01 05:57:14;;;;;;;14.40;12.90;;;13.00;99.90;;;;;;5012169;28;20441;-61
2021/09/01 05:59:57;;;;;;;15.17;13.30;;;13.00;99.90;;;;;;5011930;28;20489;-61
2021/09/01 06:02:30;;;;;;;16.37;13.63;;;13.10;99.90;;;;;;5012324;28;20421;-61
2021/09/01 06:04:58;;;;;;;16.10;13.33;;;13.30;99.90;;;;;;5012179;28;20834;-61
2021/09/01 06:07:25;;;;;;;14.97;13.47;;;13.40;99.90;;;;;;5012231;28;20433;-61
2021/09/01 06:09:53;;;;;;;15.17;13.67;;;13.50;99.90;;;;;;5011874;28;20903;-61
2021/09/01 06:12:20;;;;;;;15.73;13.97;;;13.60;99.90;;;;;;5012264;28;20418;-61
2021/09/01 06:14:47;;;;;;;15.67;12.50;;;13.70;99.90;;;;;;5012151;28;20418;-61
2021/09/01 06:17:12;;;;;;;14.70;12.43;;;13.90;99.90;;;;;;5011976;28;20540;-61
2021/09/01 06:19:38;;;;;;;16.30;12.10;;;13.80;99.90;;;;;;5011789;28;20548;-61
2021/09/01 06:22:05;;;;;;;18.20;14.17;;;13.90;99.90;;;;;;5012029;28;20175;-61
2021/09/01 06:24:32;;;;;;;18.50;14.20;;;14.10;99.90;;;;;;5011985;28;20426;-61
2021/09/01 06:26:58;;;;;;;14.83;13.53;;;14.30;99.90;;;;;;5012015;28;20414;-61
2021/09/01 06:29:23;;;;;;;14.80;13.30;;;14.50;99.90;;;;;;5011660;28;20508;-61
2021/09/01 06:31:49;;;;;;;16.07;14.47;;;14.60;99.90;;;;;;5011737;28;20936;-61
2021/09/01 06:34:14;;;;;;;18.27;16.27;;;14.70;99.90;;;;;;5011820;28;20449;-61
2021/09/01 06:36:40;;;;;;;15.37;13.77;;;14.80;99.90;;;;;;5011720;28;20173;-61
2021/09/01 06:39:05;;;;;;;18.67;15.90;;;14.90;99.90;;;;;;5009883;28;20199;-61
2021/09/01 06:41:31;;;;;;;19.13;16.17;;;15.00;99.90;;;;;;5014230;28;20167;-61
2021/09/01 06:43:56;;;;;;;27.60;18.60;;;15.10;99.90;;;;;;5014175;28;20167;-61
2021/09/01 06:46:22;;;;;;;19.87;17.80;;;15.40;99.90;;;;;;5015500;28;20210;-61
2021/09/01 06:48:47;;;;;;;23.83;17.60;;;15.60;99.90;;;;;;5015162;28;20202;-61
2021/09/01 06:51:13;;;;;;;18.37;15.60;;;15.70;99.90;;;;;;5015414;28;20210;-61
2021/09/01 06:53:38;;;;;;;19.87;18.03;;;15.80;99.90;;;;;;5015446;28;20171;-61
2021/09/01 06:56:04;;;;;;;20.53;17.33;;;16.00;99.90;;;;;;5015381;28;20175;-61
2021/09/01 06:58:30;;;;;;;22.13;17.30;;;16.20;99.90;;;;;;5014848;28;20681;-61
2021/09/01 07:00:55;;;;;;;19.93;17.17;;;16.40;99.90;;;;;;5015142;28;20199;-61
2021/09/01 07:03:21;;;;;;;22.73;19.43;;;16.60;99.90;;;;;;5015567;28;20182;-61
2021/09/01 07:05:46;;;;;;;21.93;19.63;;;16.80;99.90;;;;;;5015353;28;20534;-61
2021/09/01 07:08:17;;;;;;;21.20;19.10;;;17.10;99.90;;;;;;5015306;28;20195;-61
2021/09/01 07:10:44;;;;;;;22.87;20.37;;;17.20;99.90;;;;;;5015320;28;20167;-61
2021/09/01 07:13:10;;;;;;;26.93;22.30;;;17.30;99.90;;;;;;5015225;28;20564;-61
2021/09/01 07:15:36;;;;;;;22.80;20.40;;;17.30;99.90;;;;;;5015160;28;20926;-61
2021/09/01 07:18:02;;;;;;;24.50;21.13;;;17.30;99.90;;;;;;5015123;28;20464;-61
2021/09/01 07:20:27;;;;;;;25.30;22.60;;;17.40;99.90;;;;;;5014854;28;20246;-61
2021/09/01 07:22:53;;;;;;;21.57;19.27;;;17.50;99.90;;;;;;5013941;28;20167;-61
2021/09/01 07:25:18;;;;;;;22.20;19.90;;;17.70;99.90;;;;;;5015004;28;20171;-60
2021/09/01 07:27:44;;;;;;;21.27;19.10;;;18.00;99.90;;;;;;5014880;28;20237;-61
2021/09/01 07:30:10;;;;;;;22.07;19.13;;;18.20;99.90;;;;;;5013439;28;20198;-61
2021/09/01 07:32:36;;;;;;;20.97;18.87;;;18.30;99.90;;;;;;5014930;28;20660;-61
2021/09/01 07:35:01;;;;;;;19.77;17.67;;;18.50;99.90;;;;;;5014884;28;20418;-61
2021/09/01 07:37:27;;;;;;;20.83;17.50;;;18.70;99.90;;;;;;5014799;28;20195;-61
2021/09/01 07:39:53;;;;;;;19.00;16.27;;;19.00;99.90;;;;;;5014175;28;20967;-61
2021/09/01 07:42:18;;;;;;;17.50;15.73;;;19.20;99.90;;;;;;5014938;28;20209;-61
2021/09/01 07:44:44;;;;;;;18.00;16.20;;;19.40;99.90;;;;;;5014669;28;20211;-62
2021/09/01 07:47:10;;;;;;;18.43;16.60;;;19.30;99.90;;;;;;5014621;28;20191;-61
2021/09/01 07:49:35;;;;;;;18.03;15.67;;;19.30;99.90;;;;;;5014335;28;20517;-61
2021/09/01 07:52:01;;;;;;;17.10;14.90;;;19.50;99.90;;;;;;5013490;28;20185;-61
2021/09/01 07:54:27;;;;;;;16.90;15.30;;;19.50;99.90;;;;;;5014416;28;20547;-61
2021/09/01 07:56:53;;;;;;;18.60;16.80;;;19.70;99.90;;;;;;5014500;28;20428;-61
2021/09/01 07:59:18;;;;;;;16.70;14.93;;;19.90;99.90;;;;;;5014020;28;20209;-61
2021/09/01 08:01:44;;;;;;;16.90;15.20;;;20.10;99.90;;;;;;5014385;28;20253;-61
2021/09/01 08:04:09;;;;;;;16.47;15.00;;;20.30;99.90;;;;;;5014409;28;20278;-60
2021/09/01 08:06:35;;;;;;;15.23;13.83;;;20.40;99.90;;;;;;5014265;28;20178;-60
2021/09/01 08:09:00;;;;;;;17.10;15.40;;;20.50;99.90;;;;;;5013854;28;20221;-62
2021/09/01 08:11:26;;;;;;;16.60;14.60;;;20.60;99.90;;;;;;5014203;28;20182;-61
2021/09/01 08:13:52;;;;;;;15.03;13.63;;;20.70;99.90;;;;;;5014123;28;20175;-61
2021/09/01 08:16:17;;;;;;;17.87;16.03;;;21.00;99.90;;;;;;5014190;28;20181;-62
2021/09/01 08:18:43;;;;;;;16.97;15.33;;;21.10;99.90;;;;;;5013652;28;20582;-61
2021/09/01 08:21:09;;;;;;;18.33;16.57;;;21.20;99.90;;;;;;5013959;28;20237;-62
2021/09/01 08:23:34;;;;;;;16.50;14.90;;;21.30;99.90;;;;;;5013854;28;20175;-61
2021/09/01 08:26:00;;;;;;;14.30;12.90;;;21.30;99.90;;;;;;5013957;28;20209;-62
2021/09/01 08:28:25;;;;;;;15.10;13.70;;;21.70;99.90;;;;;;5013415;28;20273;-60
2021/09/01 08:30:51;;;;;;;15.20;13.90;;;22.10;99.90;;;;;;5013768;28;20655;-61
2021/09/01 08:33:17;;;;;;;17.73;16.03;;;22.20;99.90;;;;;;5013735;28;20171;-62
2021/09/01 08:35:42;;;;;;;14.57;13.20;;;22.20;99.90;;;;;;5013590;28;20179;-61
2021/09/01 08:38:08;;;;;;;15.20;13.70;;;22.30;99.90;;;;;;5013441;28;20234;-61
2021/09/01 08:40:33;;;;;;;16.27;14.77;;;22.40;99.90;;;;;;5013235;28;20210;-62
2021/09/01 08:43:00;;;;;;;16.87;15.27;;;22.50;99.90;;;;;;5013443;28;20171;-62
2021/09/01 08:45:26;;;;;;;17.43;15.73;;;22.50;99.90;;;;;;5013530;28;20167;-62
2021/09/01 08:47:53;;;;;;;16.70;15.00;;;22.60;99.90;;;;;;5012068;28;20866;-62
2021/09/01 08:50:19;;;;;;;15.20;13.80;;;22.80;99.90;;;;;;5013187;28;20179;-62
2021/09/01 08:52:44;;;;;;;16.23;14.60;;;23.10;99.90;;;;;;5013304;28;20463;-62
2021/09/01 08:55:12;;;;;;;16.10;14.60;;;23.40;99.90;;;;;;5013614;28;20167;-62
2021/09/01 08:57:38;;;;;;;16.43;14.83;;;23.40;99.90;;;;;;5013271;28;20682;-61
2021/09/01 09:00:06;;;;;;;15.40;13.80;;;23.60;99.90;;;;;;5012833;28;20458;-62
2021/09/01 09:02:31;;;;;;;15.03;13.63;;;24.10;99.90;;;;;;5013286;28;20576;-62
2021/09/01 09:04:58;;;;;;;14.50;13.13;;;24.60;99.90;;;;;;5013006;28;20425;-62
2021/09/01 09:07:24;;;;;;;14.67;13.40;;;24.90;99.90;;;;;;5013479;28;20260;-62
2021/09/01 09:09:51;;;;;;;13.87;12.70;;;25.20;99.90;;;;;;5012803;28;20521;-62
2021/09/01 09:12:17;;;;;;;15.83;14.20;;;25.40;99.90;;;;;;5011775;28;20179;-62
2021/09/01 09:14:49;;;;;;;14.67;13.37;;;25.40;99.90;;;;;;5013082;28;20437;-62
2021/09/01 09:17:19;;;;;;;13.80;12.60;;;25.70;99.90;;;;;;5012826;28;20225;-61
2021/09/01 09:20:03;;;;;;;12.50;11.40;;;25.90;99.90;;;;;;5012476;28;20461;-62
2021/09/01 09:22:40;;;;;;;13.10;12.00;;;26.30;99.90;;;;;;5012895;28;20793;-62
2021/09/01 09:25:10;;;;;;;12.87;11.27;;;26.40;99.90;;;;;;5012861;28;20791;-62
2021/09/01 09:27:50;;;;;;;12.77;11.67;;;26.80;99.90;;;;;;5012783;28;20812;-62
2021/09/01 09:30:32;;;;;;;11.57;10.57;;;27.10;99.90;;;;;;5012453;28;20429;-62
2021/09/01 09:33:12;;;;;;;11.50;10.47;;;28.30;99.90;;;;;;5011510;28;20437;-62
2021/09/01 09:35:58;;;;;;;12.13;11.00;;;28.80;99.90;;;;;;5011405;28;20433;-61
2021/09/01 09:38:32;;;;;;;10.03;9.17;;;28.80;99.90;;;;;;5012411;28;20445;-62
2021/09/01 09:41:00;;;;;;;10.10;9.20;;;29.40;98.50;;;;;;5012475;28;20560;-62
2021/09/01 09:43:27;;;;;;;9.87;9.03;;;28.70;98.40;;;;;;5012695;28;20500;-62
2021/09/01 09:46:08;;;;;;;9.20;8.40;;;28.90;98.40;;;;;;5012749;28;20903;-63
2021/09/01 09:48:36;;;;;;;8.63;7.93;;;29.60;97.10;;;;;;5012246;28;20794;-62
2021/09/01 09:51:03;;;;;;;8.57;7.77;;;29.10;96.00;;;;;;5012421;28;20789;-62
2021/09/01 09:53:41;;;;;;;8.60;7.87;;;28.30;95.70;;;;;;5012342;28;20422;-62
2021/09/01 09:56:11;;;;;;;8.10;7.40;;;27.60;96.00;;;;;;5012375;28;20413;-62
2021/09/01 09:58:40;;;;;;;7.67;7.07;;;26.60;97.10;;;;;;5012028;28;20440;-61
2021/09/01 10:01:08;;;;;;;6.83;6.33;;;26.70;98.20;;;;;;5012255;28;20859;-62
2021/09/01 10:03:34;;;;;;;7.73;7.03;;;27.80;95.90;;;;;;5012268;28;20426;-62
2021/09/01 10:06:02;;;;;;;7.57;6.90;;;27.70;95.40;;;;;;5012421;28;20766;-62
2021/09/01 10:08:33;;;;;;;8.77;8.07;;;28.60;94.40;;;;;;5012235;28;20851;-63
2021/09/01 10:11:00;;;;;;;7.33;6.63;;;29.50;92.90;;;;;;5012060;28;20782;-62
2021/09/01 10:13:27;;;;;;;7.77;7.07;;;29.80;91.60;;;;;;5012225;28;20430;-62
2021/09/01 10:15:57;;;;;;;7.93;6.80;;;30.70;88.50;;;;;;5011584;28;20453;-63
2021/09/01 10:18:24;;;;;;;6.60;6.10;;;31.40;83.70;;;;;;5012499;28;20861;-63
2021/09/01 10:20:51;;;;;;;6.27;5.77;;;32.00;74.80;;;;;;5010697;28;20545;-62
2021/09/01 10:23:16;;;;;;;5.97;5.57;;;33.00;74.30;;;;;;5012128;28;20426;-62
2021/09/01 10:25:51;;;;;;;6.60;6.10;;;33.20;70.40;;;;;;5012028;28;20429;-63
2021/09/01 10:28:20;;;;;;;7.03;6.43;;;33.40;67.80;;;;;;5011877;28;20195;-62
2021/09/01 10:31:12;;;;;;;5.93;5.53;;;33.20;68.70;;;;;;5012260;28;20421;-63
2021/09/01 10:33:41;;;;;;;6.37;5.93;;;34.60;72.10;;;;;;5012100;28;20476;-62
2021/09/01 10:36:24;;;;;;;6.63;5.63;;;35.80;72.30;;;;;;5012006;28;20428;-62
2021/09/01 10:38:51;;;;;;;7.00;6.50;;;35.40;69.90;;;;;;5011487;28;20433;-62
2021/09/01 10:41:28;;;;;;;6.17;5.77;;;35.80;68.90;;;;;;5011833;28;20507;-63
2021/09/01 10:43:55;;;;;;;7.27;6.27;;;35.30;66.20;;;;;;5011944;28;20417;-62
2021/09/01 10:46:21;;;;;;;5.60;5.20;;;34.90;66.60;;;;;;5011933;28;20418;-62
2021/09/01 10:48:56;;;;;;;6.67;6.17;;;34.70;67.60;;;;;;5011726;28;21135;-62
2021/09/01 10:51:26;;;;;;;6.23;5.83;;;35.00;66.40;;;;;;5011817;28;20564;-62
2021/09/01 10:53:52;;;;;;;6.10;5.70;;;35.00;65.70;;;;;;5011845;28;20422;-62
2021/09/01 10:56:17;;;;;;;5.93;5.53;;;35.00;63.10;;;;;;5011810;28;20429;-62
2021/09/01 10:58:44;;;;;;;7.10;6.60;;;33.50;65.00;;;;;;5011419;28;20200;-62
2021/09/01 11:01:10;;;;;;;6.37;5.80;;;32.30;67.50;;;;;;5011823;28;20575;-62
2021/09/01 11:03:36;;;;;;;6.37;5.87;;;31.50;70.20;;;;;;5011729;28;20409;-62
2021/09/01 11:06:14;;;;;;;5.70;5.30;;;32.90;67.80;;;;;;5011670;28;20167;-62
2021/09/01 11:09:04;;;;;;;5.77;5.37;;;32.50;66.60;;;;;;5011406;28;20437;-62
2021/09/01 11:11:43;;;;;;;6.47;6.07;;;30.60;69.50;;;;;;5011726;28;20421;-62
2021/09/01 11:14:10;;;;;;;5.87;5.37;;;30.20;70.20;;;;;;5011705;28;20414;-62
2021/09/01 11:16:36;;;;;;;7.13;6.50;;;30.80;69.30;;;;;;5011446;28;20444;-62
2021/09/01 11:19:10;;;;;;;7.43;6.03;;;30.50;69.10;;;;;;5011275;28;20998;-62
2021/09/01 11:21:44;;;;;;;6.27;5.87;;;29.60;71.80;;;;;;5010376;28;20179;-62
2021/09/01 11:24:12;;;;;;;7.50;6.27;;;29.30;72.30;;;;;;5011550;28;20410;-62
2021/09/01 11:26:38;;;;;;;7.17;6.57;;;29.10;74.40;;;;;;5011506;28;20410;-62
2021/09/01 11:29:06;;;;;;;6.20;5.70;;;28.50;74.20;;;;;;5014242;28;20437;-62
2021/09/01 11:31:32;;;;;;;7.57;6.97;;;28.10;74.80;;;;;;5014950;28;20246;-62
2021/09/01 11:33:59;;;;;;;9.70;9.00;;;29.20;75.70;;;;;;5013682;28;20496;-62
2021/09/01 11:36:29;;;;;;;7.10;6.40;;;31.60;72.20;;;;;;5014898;28;20527;-62
2021/09/01 11:38:59;;;;;;;6.60;6.10;;;31.50;69.20;;;;;;5014541;28;20433;-62
2021/09/01 11:41:26;;;;;;;6.87;5.80;;;30.20;70.90;;;;;;5014634;28;20465;-62
2021/09/01 11:44:03;;;;;;;7.27;6.67;;;28.60;73.10;;;;;;5014798;28;20422;-62
2021/09/01 11:46:36;;;;;;;7.20;6.63;;;27.50;76.30;;;;;;5014675;28;20425;-62
2021/09/01 11:49:12;;;;;;;6.90;6.17;;;27.10;78.00;;;;;;5014335;28;20464;-62
2021/09/01 11:51:40;;;;;;;6.63;6.10;;;26.90;79.30;;;;;;5014631;28;20566;-62
2021/09/01 11:54:07;;;;;;;7.13;6.47;;;26.20;80.50;;;;;;5014449;28;20424;-62
2021/09/01 11:56:32;;;;;;;7.80;7.17;;;26.00;81.00;;;;;;5014536;28;20820;-62
2021/09/01 11:59:19;;;;;;;7.53;6.83;;;26.10;81.10;;;;;;5013995;28;20444;-62
2021/09/01 12:01:46;;;;;;;6.97;6.37;;;25.80;81.90;;;;;;5014792;28;20680;-62
2021/09/01 12:04:14;;;;;;;6.10;5.70;;;25.70;82.80;;;;;;5014343;28;20406;-61
2021/09/01 12:06:42;;;;;;;5.60;5.10;;;26.50;81.20;;;;;;5014299;28;20781;-62
2021/09/01 12:09:14;;;;;;;6.57;4.93;;;29.40;78.50;;;;;;5013904;28;20429;-62
2021/09/01 12:12:01;;;;;;;6.30;5.80;;;31.40;70.00;;;;;;5014290;28;20977;-62
2021/09/01 12:14:28;;;;;;;5.67;5.27;;;32.90;66.50;;;;;;5014150;28;20414;-62
2021/09/01 12:17:13;;;;;;;6.20;5.70;;;32.20;65.10;;;;;;5013816;28;20465;-62
2021/09/01 12:19:48;;;;;;;6.50;5.90;;;30.10;69.60;;;;;;5013793;28;20462;-62
2021/09/01 12:22:37;;;;;;;6.43;5.83;;;28.10;73.90;;;;;;5013966;28;20938;-62
2021/09/01 12:25:10;;;;;;;6.23;5.80;;;27.10;76.80;;;;;;5013977;28;20410;-61
2021/09/01 12:27:38;;;;;;;6.67;5.97;;;26.40;79.30;;;;;;5013900;28;20426;-61
2021/09/01 12:30:08;;;;;;;8.03;7.27;;;26.10;81.00;;;;;;5013466;28;20938;-62
2021/09/01 12:32:34;;;;;;;6.13;5.73;;;27.70;78.80;;;;;;5013858;28;20519;-62